Lanark, West Virginia
Current Conditions -  °F | °C
As of 8:51 PM on Monday 22 Dec 2014 (Local Time) from KBKW Reporting Station
Overcast Overcast  
Wind Chill: 29°   Ceiling: 700
Heat Index: 37°   Visibility: 10mi
Dew Point: 33°   Wind: 13mph
Humidity: 86%   Direction: 140°SE
Pressure: 29.93"   Gusts: 23mph
Location:  37.83°N, 81.15°W
Report Text: KBKW 230151Z AUTO 14011G20KT 10SM OVC007 03/01 A2993 RMK AO2 PK WND 15026/0113 SLP154 T00280006
Loading
Personal Weather Stations






























Interactive Weather Map New forecast layout! Learn more

10-Day Weather Forecast

Advertisements
Track Severe Weather on mobile